Time;durP1;ratioP1;P1;durP2;ratioP2;P2;SDS_P1;SDS_P2;PMS_P1;PMS_P2;Temp;Humidity;BMP_temperature;BMP_pressure;BME280_temperature;BME280_humidity;BME280_pressure;Samples;Min_cycle;Max_cycle;Signal;HPM_P1;HPM_P2
2021/07/03 00:01:36;;;;;;;21.67;17.80;;;17.40;99.90;;;;;;4978270;28;20074;-80
2021/07/03 00:04:03;;;;;;;20.33;18.05;;;17.30;99.90;;;;;;4978977;28;20129;-79
2021/07/03 00:06:30;;;;;;;22.77;19.42;;;17.30;99.90;;;;;;4979056;28;20086;-80
2021/07/03 00:08:57;;;;;;;23.45;19.08;;;17.20;99.90;;;;;;4980275;28;20046;-80
2021/07/03 00:11:24;;;;;;;25.23;20.38;;;17.20;99.90;;;;;;4980169;28;20082;-80
2021/07/03 00:13:51;;;;;;;23.13;20.63;;;17.10;99.90;;;;;;4978532;28;20082;-80
2021/07/03 00:16:19;;;;;;;27.67;21.67;;;17.10;99.90;;;;;;4979085;28;20046;-80
2021/07/03 00:18:46;;;;;;;24.58;20.77;;;17.10;99.90;;;;;;4979132;28;20086;-79
2021/07/03 00:21:13;;;;;;;24.63;19.98;;;17.10;99.90;;;;;;4978262;28;20114;-80
2021/07/03 00:23:40;;;;;;;22.27;19.85;;;17.00;99.90;;;;;;4978650;28;20081;-80
2021/07/03 00:26:06;;;;;;;25.83;19.13;;;17.00;99.90;;;;;;4975312;28;20113;-78
2021/07/03 00:28:33;;;;;;;24.92;18.98;;;17.00;99.90;;;;;;4974871;28;20057;-78
2021/07/03 00:31:00;;;;;;;22.67;19.10;;;16.90;99.90;;;;;;4975232;28;20508;-79
2021/07/03 00:33:28;;;;;;;23.25;19.10;;;16.80;99.90;;;;;;4975341;28;20074;-79
2021/07/03 00:35:55;;;;;;;21.23;18.52;;;16.80;99.90;;;;;;4973863;28;20078;-79
2021/07/03 00:38:22;;;;;;;22.67;18.80;;;16.70;99.90;;;;;;4973574;28;20138;-79
2021/07/03 00:40:49;;;;;;;21.67;19.00;;;16.80;99.90;;;;;;4973554;28;20134;-78
2021/07/03 00:43:16;;;;;;;22.83;19.25;;;16.80;99.90;;;;;;4973991;28;20086;-79
2021/07/03 00:45:43;;;;;;;23.52;18.90;;;16.80;99.90;;;;;;4974204;28;20126;-79
2021/07/03 00:48:10;;;;;;;24.83;20.33;;;16.80;99.90;;;;;;4973830;28;20351;-79
2021/07/03 00:50:38;;;;;;;23.85;19.50;;;16.70;99.90;;;;;;4972643;28;20133;-78
2021/07/03 00:53:05;;;;;;;23.00;19.80;;;16.70;99.90;;;;;;4972587;28;20134;-78
2021/07/03 00:55:33;;;;;;;24.67;20.08;;;16.70;99.90;;;;;;4972432;28;20157;-77
2021/07/03 00:58:00;;;;;;;23.13;19.08;;;16.70;99.90;;;;;;4972157;28;20089;-78
2021/07/03 01:00:26;;;;;;;24.83;19.67;;;16.70;99.90;;;;;;4972067;28;20137;-77
2021/07/03 01:02:54;;;;;;;25.42;20.40;;;16.60;99.90;;;;;;4972090;28;20129;-77
2021/07/03 01:05:21;;;;;;;24.42;20.90;;;16.60;99.90;;;;;;4972525;28;20467;-77
2021/07/03 01:07:49;;;;;;;24.20;20.80;;;16.60;99.90;;;;;;4973460;28;20055;-79
2021/07/03 01:10:21;;;;;;;22.65;19.60;;;16.60;99.90;;;;;;4975705;28;20561;-79
2021/07/03 01:12:48;;;;;;;26.65;21.67;;;16.60;99.90;;;;;;4975675;28;20090;-79
2021/07/03 01:15:16;;;;;;;24.33;20.42;;;16.50;99.90;;;;;;4975628;28;20090;-79
2021/07/03 01:17:43;;;;;;;24.88;21.15;;;16.50;99.90;;;;;;4975788;28;20078;-80
2021/07/03 01:20:11;;;;;;;25.75;21.42;;;16.50;99.90;;;;;;4977595;28;20110;-79
2021/07/03 01:22:39;;;;;;;24.92;21.10;;;16.50;99.90;;;;;;4976523;28;20141;-78
2021/07/03 01:25:07;;;;;;;24.50;20.45;;;16.40;99.90;;;;;;4975258;28;20074;-79
2021/07/03 01:27:35;;;;;;;25.35;20.20;;;16.40;99.90;;;;;;4975208;28;20082;-79
2021/07/03 01:30:03;;;;;;;25.65;20.75;;;16.40;99.90;;;;;;4976399;28;20232;-79
2021/07/03 01:32:30;;;;;;;29.38;21.83;;;16.40;99.90;;;;;;4976617;28;20086;-79
2021/07/03 01:34:57;;;;;;;26.05;21.10;;;16.40;99.90;;;;;;4976363;28;20465;-81
2021/07/03 01:37:24;;;;;;;25.55;20.65;;;16.40;99.90;;;;;;4976319;28;20055;-80
2021/07/03 01:39:52;;;;;;;30.35;20.73;;;16.40;99.90;;;;;;4974857;28;20122;-79
2021/07/03 01:42:19;;;;;;;26.63;20.65;;;16.40;99.90;;;;;;4975494;28;20078;-80
2021/07/03 01:44:49;;;;;;;29.27;21.70;;;16.40;99.90;;;;;;4975471;28;20126;-79
2021/07/03 01:47:16;;;;;;;24.77;20.38;;;16.40;99.90;;;;;;4975523;28;20061;-79
2021/07/03 01:49:45;;;;;;;24.95;20.80;;;16.40;99.90;;;;;;4974274;28;20150;-79
2021/07/03 01:52:16;;;;;;;25.63;21.80;;;16.20;99.90;;;;;;4977920;28;20118;-79
2021/07/03 01:54:44;;;;;;;26.92;22.23;;;16.10;99.90;;;;;;4978917;28;20050;-79
2021/07/03 01:57:12;;;;;;;27.60;21.88;;;16.10;99.90;;;;;;4978660;28;20129;-79
2021/07/03 01:59:39;;;;;;;25.30;21.13;;;16.00;99.90;;;;;;4978086;28;20133;-79
2021/07/03 02:02:06;;;;;;;30.15;21.58;;;15.90;99.90;;;;;;4978060;28;20137;-79
2021/07/03 02:04:33;;;;;;;28.38;21.77;;;15.90;99.90;;;;;;4978619;28;20130;-80
2021/07/03 02:07:00;;;;;;;28.50;22.20;;;15.90;99.90;;;;;;4982311;28;20061;-78
2021/07/03 02:09:27;;;;;;;26.13;22.17;;;15.90;99.90;;;;;;4982407;28;20105;-79
2021/07/03 02:11:54;;;;;;;27.50;23.23;;;15.90;99.90;;;;;;4978629;28;20563;-79
2021/07/03 02:14:22;;;;;;;28.55;22.67;;;15.80;99.90;;;;;;4978445;28;20129;-78
2021/07/03 02:16:49;;;;;;;29.67;22.83;;;15.80;99.90;;;;;;4978346;28;20137;-78
2021/07/03 02:19:16;;;;;;;26.48;21.25;;;15.80;99.90;;;;;;4978770;28;20055;-78
2021/07/03 02:21:43;;;;;;;26.95;22.27;;;15.80;99.90;;;;;;4980068;28;20086;-78
2021/07/03 02:24:10;;;;;;;25.90;22.83;;;15.80;99.90;;;;;;4980339;28;20134;-78
2021/07/03 02:26:37;;;;;;;26.08;21.98;;;15.80;99.90;;;;;;4980103;28;20512;-80
2021/07/03 02:29:04;;;;;;;29.98;22.83;;;15.80;99.90;;;;;;4982139;28;20051;-79
2021/07/03 02:31:33;;;;;;;28.20;21.90;;;15.70;99.90;;;;;;4985119;28;20125;-78
2021/07/03 02:34:00;;;;;;;29.23;22.83;;;15.70;99.90;;;;;;4981072;28;20467;-79
2021/07/03 02:36:27;;;;;;;28.15;22.40;;;15.70;99.90;;;;;;4979403;28;20129;-80
2021/07/03 02:38:54;;;;;;;28.63;23.13;;;15.70;99.90;;;;;;4977928;28;20133;-79
2021/07/03 02:41:20;;;;;;;26.77;21.58;;;15.60;99.90;;;;;;4978711;28;20133;-79
2021/07/03 02:43:47;;;;;;;29.50;22.60;;;15.60;99.90;;;;;;4977808;28;20141;-79
2021/07/03 02:46:15;;;;;;;27.13;22.15;;;15.60;99.90;;;;;;4976522;28;20130;-79
2021/07/03 02:48:43;;;;;;;27.55;22.50;;;15.60;99.90;;;;;;4978344;28;20451;-79
2021/07/03 02:51:10;;;;;;;26.83;22.10;;;15.60;99.90;;;;;;4978712;28;20109;-79
2021/07/03 02:53:37;;;;;;;28.50;22.30;;;15.50;99.90;;;;;;4977820;28;20090;-79
2021/07/03 02:56:04;;;;;;;31.20;23.38;;;15.50;99.90;;;;;;4978103;28;20130;-79
2021/07/03 02:58:31;;;;;;;30.33;24.80;;;15.50;99.90;;;;;;4977231;28;20086;-80
2021/07/03 03:00:58;;;;;;;33.25;23.98;;;15.50;99.90;;;;;;4977330;28;20154;-80
2021/07/03 03:03:25;;;;;;;33.47;25.27;;;15.50;99.90;;;;;;4976016;28;20090;-80
2021/07/03 03:05:53;;;;;;;32.65;25.02;;;15.50;99.90;;;;;;4977732;28;20089;-79
2021/07/03 03:08:20;;;;;;;36.38;26.50;;;15.40;99.90;;;;;;4977871;28;20054;-79
2021/07/03 03:10:47;;;;;;;33.28;27.02;;;15.30;99.90;;;;;;4977281;28;20086;-79
2021/07/03 03:13:13;;;;;;;38.05;27.50;;;15.30;99.90;;;;;;4978112;28;20431;-80
2021/07/03 03:15:40;;;;;;;33.55;26.42;;;15.30;99.90;;;;;;4976884;28;20129;-78
2021/07/03 03:18:07;;;;;;;35.58;28.83;;;15.20;99.90;;;;;;4976449;28;20114;-78
2021/07/03 03:20:34;;;;;;;37.67;28.33;;;15.10;99.90;;;;;;4975187;28;20086;-77
2021/07/03 03:23:02;;;;;;;40.65;29.17;;;15.20;99.90;;;;;;4974746;28;20050;-78
2021/07/03 03:25:29;;;;;;;41.25;27.67;;;15.20;99.90;;;;;;4974995;28;20471;-78
2021/07/03 03:27:56;;;;;;;37.90;29.20;;;15.20;99.90;;;;;;4974996;28;20054;-79
2021/07/03 03:30:23;;;;;;;42.33;29.23;;;15.10;99.90;;;;;;4975181;28;20113;-78
2021/07/03 03:32:50;;;;;;;42.38;30.20;;;15.10;99.90;;;;;;4976951;28;20133;-78
2021/07/03 03:35:17;;;;;;;37.83;29.15;;;15.10;99.90;;;;;;4976938;28;20114;-78
2021/07/03 03:37:44;;;;;;;39.30;28.17;;;15.10;99.90;;;;;;4975241;28;20145;-78
2021/07/03 03:40:13;;;;;;;38.50;28.13;;;15.10;99.90;;;;;;4975956;28;20055;-79
2021/07/03 03:42:40;;;;;;;42.42;27.00;;;15.10;99.90;;;;;;4977090;28;20055;-78
2021/07/03 03:45:08;;;;;;;37.30;26.67;;;15.10;99.90;;;;;;4976762;28;20078;-79
2021/07/03 03:47:35;;;;;;;36.00;26.40;;;15.10;99.90;;;;;;4975839;28;20110;-79
2021/07/03 03:50:02;;;;;;;30.95;25.17;;;15.10;99.90;;;;;;4975583;28;20061;-78
2021/07/03 03:52:29;;;;;;;33.28;25.90;;;15.20;99.90;;;;;;4975381;28;20142;-79
2021/07/03 03:54:56;;;;;;;35.35;25.05;;;15.20;99.90;;;;;;4975523;28;20153;-79
2021/07/03 03:57:29;;;;;;;31.17;24.10;;;15.30;99.90;;;;;;4975953;28;20508;-78
2021/07/03 03:59:57;;;;;;;32.85;24.45;;;15.30;99.90;;;;;;4975806;28;20057;-79
2021/07/03 04:02:25;;;;;;;30.05;24.17;;;15.40;99.90;;;;;;4974894;28;20137;-78
2021/07/03 04:04:52;;;;;;;31.48;23.70;;;15.40;99.90;;;;;;4974313;28;20137;-78
2021/07/03 04:07:20;;;;;;;29.92;22.40;;;15.50;99.90;;;;;;4974005;28;20050;-78
2021/07/03 04:09:48;;;;;;;25.63;21.17;;;15.60;99.90;;;;;;4973900;28;20138;-78
2021/07/03 04:12:15;;;;;;;25.63;20.25;;;15.80;99.90;;;;;;4974751;28;20138;-78
2021/07/03 04:14:44;;;;;;;29.05;20.20;;;16.00;99.90;;;;;;4974806;28;20123;-77
2021/07/03 04:17:11;;;;;;;21.33;18.60;;;16.20;99.90;;;;;;4975681;28;20138;-78
2021/07/03 04:19:38;;;;;;;26.17;20.55;;;16.30;99.90;;;;;;4999814;23;20046;-78
2021/07/03 04:22:05;;;;;;;27.33;20.08;;;16.40;99.90;;;;;;5032105;28;20046;-79
2021/07/03 04:24:31;;;;;;;25.80;19.60;;;16.40;99.90;;;;;;5039562;28;20056;-79
2021/07/03 04:27:01;;;;;;;27.38;21.00;;;16.40;99.90;;;;;;5043943;28;20057;-79
2021/07/03 04:29:28;;;;;;;25.73;19.77;;;16.30;99.90;;;;;;5042101;28;20132;-80
2021/07/03 04:31:56;;;;;;;27.92;19.75;;;16.30;99.90;;;;;;5041414;28;20136;-79
2021/07/03 04:34:23;;;;;;;25.00;20.02;;;16.40;99.90;;;;;;5041916;28;20099;-80
2021/07/03 04:36:50;;;;;;;22.35;19.65;;;16.50;99.90;;;;;;5039939;28;20077;-81
2021/07/03 04:39:18;;;;;;;25.98;19.73;;;16.60;99.90;;;;;;5041807;28;20088;-79
2021/07/03 04:41:45;;;;;;;24.33;19.35;;;16.70;99.90;;;;;;5039155;28;20088;-79
2021/07/03 04:44:13;;;;;;;24.13;18.92;;;16.80;99.90;;;;;;5032937;28;20053;-79
2021/07/03 04:46:41;;;;;;;24.55;18.73;;;16.80;99.90;;;;;;5019780;28;20050;-78
2021/07/03 04:49:09;;;;;;;22.33;18.13;;;16.90;99.90;;;;;;5017513;28;20081;-79
2021/07/03 04:51:36;;;;;;;20.15;17.42;;;17.00;99.90;;;;;;5026679;28;20072;-80
2021/07/03 04:54:04;;;;;;;20.33;17.45;;;17.30;99.90;;;;;;5036716;28;20041;-80
2021/07/03 04:56:31;;;;;;;21.23;17.77;;;17.50;99.90;;;;;;5036964;28;20050;-80
2021/07/03 04:58:57;;;;;;;27.25;18.48;;;17.60;99.90;;;;;;5036794;28;20044;-81
2021/07/03 05:01:25;;;;;;;22.92;18.20;;;17.50;99.90;;;;;;5036813;28;20061;-80
2021/07/03 05:03:52;;;;;;;24.35;17.67;;;17.50;99.90;;;;;;5026143;28;20137;-79
2021/07/03 05:06:21;;;;;;;22.40;19.20;;;17.50;99.90;;;;;;5015725;28;20085;-79
2021/07/03 05:08:48;;;;;;;24.35;19.05;;;17.50;99.90;;;;;;5015235;28;20064;-78
2021/07/03 05:11:14;;;;;;;23.95;18.08;;;17.50;99.90;;;;;;5015119;28;20088;-79
2021/07/03 05:13:41;;;;;;;23.67;19.85;;;17.50;99.90;;;;;;5015793;28;20077;-80
2021/07/03 05:16:08;;;;;;;21.83;19.23;;;17.50;99.90;;;;;;5015052;28;20133;-78
2021/07/03 05:18:35;;;;;;;23.50;18.27;;;17.50;99.90;;;;;;5013921;28;20073;-79
2021/07/03 05:21:02;;;;;;;22.23;17.60;;;17.60;99.90;;;;;;5024592;28;20113;-80
2021/07/03 05:23:30;;;;;;;26.10;17.30;;;17.90;99.90;;;;;;5020239;28;20085;-80
2021/07/03 05:25:57;;;;;;;20.65;15.30;;;18.30;99.90;;;;;;5022645;28;20426;-80
2021/07/03 05:28:25;;;;;;;20.58;15.10;;;18.80;99.90;;;;;;5030090;28;20054;-79
2021/07/03 05:30:52;;;;;;;20.02;14.38;;;19.60;99.90;;;;;;5033000;28;20085;-80
2021/07/03 05:33:19;;;;;;;18.05;13.13;;;20.70;99.90;;;;;;5032475;28;20054;-80
2021/07/03 05:35:46;;;;;;;17.75;13.80;;;21.70;99.90;;;;;;5024990;28;20046;-81
2021/07/03 05:38:13;;;;;;;17.02;13.23;;;22.60;99.90;;;;;;5027632;28;20088;-81
2021/07/03 05:40:41;;;;;;;15.50;12.50;;;23.00;99.90;;;;;;5031572;28;20084;-81
2021/07/03 05:43:08;;;;;;;14.25;12.60;;;23.20;99.90;;;;;;5030557;28;20045;-81
2021/07/03 05:45:35;;;;;;;13.75;12.00;;;23.30;99.90;;;;;;5031664;28;20050;-78
2021/07/03 05:48:03;;;;;;;15.25;11.43;;;23.30;99.90;;;;;;5030671;28;20100;-81
2021/07/03 05:50:30;;;;;;;16.50;11.85;;;23.30;99.90;;;;;;5027307;28;20081;-82
2021/07/03 05:52:57;;;;;;;14.93;12.70;;;23.30;99.90;;;;;;5031059;28;20548;-81
2021/07/03 05:55:24;;;;;;;15.60;11.95;;;23.10;99.90;;;;;;5030718;28;20056;-81
2021/07/03 05:57:53;;;;;;;13.60;11.13;;;23.30;99.90;;;;;;5030924;28;20046;-80
2021/07/03 06:00:21;;;;;;;15.98;13.10;;;23.40;99.90;;;;;;5030338;28;20088;-81
2021/07/03 06:02:48;;;;;;;14.73;13.00;;;23.10;99.90;;;;;;5030211;28;20050;-81
2021/07/03 06:05:15;;;;;;;15.15;12.50;;;23.10;99.90;;;;;;5030098;28;20503;-81
2021/07/03 06:07:42;;;;;;;13.68;12.20;;;23.20;99.90;;;;;;5028072;28;20487;-79
2021/07/03 06:10:10;;;;;;;15.07;12.48;;;23.40;99.90;;;;;;5022769;28;20084;-78
2021/07/03 06:12:37;;;;;;;15.52;12.50;;;23.60;99.90;;;;;;5023453;28;20099;-79
2021/07/03 06:15:07;;;;;;;13.63;12.10;;;23.70;99.90;;;;;;5022121;28;20104;-79
2021/07/03 06:17:34;;;;;;;15.55;12.63;;;23.80;99.90;;;;;;5019836;28;20477;-78
2021/07/03 06:20:01;;;;;;;14.13;12.63;;;23.80;99.90;;;;;;5018553;28;20084;-78
2021/07/03 06:22:28;;;;;;;14.73;12.82;;;23.80;99.90;;;;;;5016655;28;20088;-78
2021/07/03 06:24:54;;;;;;;15.48;12.98;;;23.90;99.90;;;;;;5018300;28;20136;-78
2021/07/03 06:27:21;;;;;;;13.85;12.30;;;24.40;99.90;;;;;;5017120;28;20092;-78
2021/07/03 06:29:48;;;;;;;14.80;11.70;;;24.70;99.90;;;;;;5018433;28;20046;-78
2021/07/03 06:32:16;;;;;;;12.32;11.10;;;25.20;99.90;;;;;;5022640;28;20081;-78
2021/07/03 06:34:43;;;;;;;12.98;11.68;;;25.40;99.90;;;;;;5021273;28;20108;-77
2021/07/03 06:37:10;;;;;;;12.25;11.00;;;25.50;99.90;;;;;;5016755;28;20049;-78
2021/07/03 06:39:37;;;;;;;15.70;12.48;;;25.30;99.90;;;;;;5015580;28;20045;-77
2021/07/03 06:42:04;;;;;;;13.68;11.13;;;25.30;99.90;;;;;;5016315;28;20088;-78
2021/07/03 06:44:31;;;;;;;12.68;11.38;;;25.30;99.90;;;;;;5017231;28;20085;-78
2021/07/03 06:46:58;;;;;;;12.90;11.38;;;25.40;99.90;;;;;;5016929;28;20078;-78
2021/07/03 06:49:26;;;;;;;14.50;13.10;;;25.60;99.90;;;;;;5016818;28;20049;-77
2021/07/03 06:51:53;;;;;;;13.73;11.30;;;25.80;99.90;;;;;;5018520;28;20486;-77
2021/07/03 06:54:20;;;;;;;14.32;11.23;;;26.20;99.90;;;;;;5019091;28;20133;-78
2021/07/03 06:56:47;;;;;;;12.27;10.80;;;26.60;99.90;;;;;;5020364;28;20136;-79
2021/07/03 06:59:16;;;;;;;12.77;11.43;;;26.80;99.90;;;;;;5021579;28;20054;-78
2021/07/03 07:01:43;;;;;;;13.02;11.63;;;26.70;99.90;;;;;;5021737;28;20049;-78
2021/07/03 07:04:10;;;;;;;14.32;12.02;;;26.60;99.90;;;;;;5021123;28;20117;-81
2021/07/03 07:06:39;;;;;;;12.48;11.27;;;26.80;99.90;;;;;;5020835;28;20073;-79
2021/07/03 07:09:05;;;;;;;14.25;12.45;;;27.50;99.90;;;;;;5022312;28;20451;-79
2021/07/03 07:11:32;;;;;;;12.10;10.80;;;27.40;99.90;;;;;;5020127;28;20085;-79
2021/07/03 07:13:59;;;;;;;12.85;11.55;;;27.70;99.90;;;;;;5019176;28;20132;-78
2021/07/03 07:16:26;;;;;;;13.02;11.60;;;27.90;99.90;;;;;;5017731;28;20046;-79
2021/07/03 07:18:53;;;;;;;15.20;11.70;;;27.80;99.90;;;;;;5019812;28;20192;-79
2021/07/03 07:21:20;;;;;;;15.48;10.63;;;27.60;99.90;;;;;;5020350;28;20050;-80
2021/07/03 07:23:48;;;;;;;12.52;10.07;;;27.70;99.90;;;;;;5019112;28;20145;-81
2021/07/03 07:26:15;;;;;;;12.48;9.95;;;27.60;99.90;;;;;;5019905;28;20109;-80
2021/07/03 07:28:41;;;;;;;15.23;10.38;;;27.60;99.90;;;;;;5017259;28;20073;-80
2021/07/03 07:31:08;;;;;;;11.57;10.38;;;27.10;99.90;;;;;;5017833;28;20061;-80
2021/07/03 07:33:35;;;;;;;11.57;10.38;;;26.90;99.90;;;;;;5020186;28;20136;-79
2021/07/03 07:36:02;;;;;;;13.52;9.75;;;26.50;99.90;;;;;;5019951;28;20136;-80
2021/07/03 07:38:29;;;;;;;10.90;9.85;;;26.70;99.90;;;;;;5020251;28;20173;-78
2021/07/03 07:40:57;;;;;;;12.93;10.15;;;26.90;99.90;;;;;;5020033;28;20082;-80
2021/07/03 07:43:24;;;;;;;11.98;10.32;;;26.90;99.90;;;;;;5018818;28;20124;-81
2021/07/03 07:45:54;;;;;;;11.43;9.00;;;26.90;99.90;;;;;;5019495;28;20109;-82
2021/07/03 07:48:20;;;;;;;11.88;9.45;;;27.30;99.90;;;;;;5017795;28;20057;-80
2021/07/03 07:50:47;;;;;;;10.38;9.27;;;27.50;99.90;;;;;;5017978;28;20470;-79
2021/07/03 07:53:14;;;;;;;10.52;9.43;;;28.00;99.90;;;;;;5015115;28;20125;-80
2021/07/03 07:55:41;;;;;;;10.50;9.35;;;28.30;99.90;;;;;;5016021;28;20140;-80
2021/07/03 07:58:09;;;;;;;10.65;9.48;;;28.70;99.90;;;;;;5015543;28;20146;-80
2021/07/03 08:00:36;;;;;;;14.27;9.85;;;29.10;99.90;;;;;;5015713;28;20593;-80
2021/07/03 08:03:03;;;;;;;11.02;9.60;;;28.90;99.90;;;;;;5016261;28;20080;-80
2021/07/03 08:05:30;;;;;;;10.93;9.60;;;29.00;99.90;;;;;;5019396;28;20138;-81
2021/07/03 08:07:57;;;;;;;14.13;10.30;;;29.00;99.90;;;;;;5019411;28;20085;-82
2021/07/03 08:10:27;;;;;;;11.68;9.70;;;29.00;99.90;;;;;;5019655;28;20077;-82
2021/07/03 08:12:54;;;;;;;12.38;10.07;;;28.60;99.90;;;;;;5018879;28;20141;-80
2021/07/03 08:15:22;;;;;;;11.35;9.02;;;28.40;99.90;;;;;;5024612;28;20053;-83
2021/07/03 08:17:49;;;;;;;10.90;9.40;;;28.90;99.90;;;;;;5023586;28;20081;-82
2021/07/03 08:20:19;;;;;;;12.95;10.27;;;29.30;99.90;;;;;;5020094;28;20054;-85
2021/07/03 08:22:47;;;;;;;11.43;10.07;;;29.00;99.90;;;;;;5021235;28;20128;-83
2021/07/03 08:25:14;;;;;;;13.40;9.15;;;28.80;99.90;;;;;;5020766;28;20046;-83
2021/07/03 08:27:42;;;;;;;10.60;9.50;;;28.80;99.90;;;;;;5020584;28;20046;-83
2021/07/03 08:30:10;;;;;;;12.18;9.05;;;29.00;99.90;;;;;;5020653;28;20113;-82
2021/07/03 08:32:39;;;;;;;13.10;10.05;;;29.50;99.90;;;;;;5020041;28;20490;-82
2021/07/03 08:35:08;;;;;;;11.07;9.50;;;29.70;99.90;;;;;;5019906;28;20057;-81
2021/07/03 08:37:35;;;;;;;10.65;9.15;;;30.20;99.90;;;;;;5020030;28;20050;-82
2021/07/03 08:40:03;;;;;;;12.88;9.60;;;30.30;99.90;;;;;;5019492;28;20129;-83
2021/07/03 08:42:30;;;;;;;13.18;8.75;;;30.30;99.90;;;;;;5019500;28;20117;-83
2021/07/03 08:44:57;;;;;;;9.45;8.52;;;30.60;99.90;;;;;;5019673;28;20138;-83
2021/07/03 08:47:24;;;;;;;10.50;8.90;;;31.00;99.90;;;;;;5019003;28;20478;-83
2021/07/03 08:49:53;;;;;;;10.57;9.15;;;31.50;99.90;;;;;;5018201;28;20049;-83
2021/07/03 08:52:21;;;;;;;9.07;8.13;;;31.60;99.90;;;;;;5018207;28;20077;-84
2021/07/03 08:54:55;;;;;;;10.57;9.43;;;31.60;99.90;;;;;;5018210;28;20053;-83
2021/07/03 08:57:22;;;;;;;10.52;9.43;;;30.80;99.90;;;;;;5021549;28;20046;-83
2021/07/03 08:59:55;;;;;;;10.27;9.20;;;30.60;99.90;;;;;;5019767;28;20132;-82
2021/07/03 09:02:33;;;;;;;11.23;8.65;;;30.80;99.90;;;;;;5017279;28;20100;-84
2021/07/03 09:05:01;;;;;;;11.02;9.52;;;31.20;99.90;;;;;;5018022;28;20526;-83
2021/07/03 09:07:34;;;;;;;9.80;8.80;;;31.30;99.90;;;;;;5017685;28;20042;-83
2021/07/03 09:10:01;;;;;;;9.70;8.80;;;31.60;99.90;;;;;;5017354;28;20152;-84
2021/07/03 09:12:29;;;;;;;9.88;8.93;;;31.60;99.90;;;;;;5018593;28;20092;-82
2021/07/03 09:14:57;;;;;;;9.00;8.18;;;31.20;99.90;;;;;;5018512;28;20053;-84
2021/07/03 09:17:24;;;;;;;11.70;9.70;;;31.10;99.90;;;;;;5019208;28;20069;-83
2021/07/03 09:19:52;;;;;;;11.13;9.52;;;30.90;99.90;;;;;;5021703;28;20077;-81
2021/07/03 09:22:20;;;;;;;11.57;9.63;;;30.60;99.90;;;;;;5028001;28;20077;-83
2021/07/03 09:24:47;;;;;;;9.90;8.90;;;30.60;99.90;;;;;;5026986;28;20061;-81
2021/07/03 09:27:14;;;;;;;11.90;8.65;;;30.90;99.90;;;;;;5022545;28;20102;-83
2021/07/03 09:29:50;;;;;;;10.80;8.82;;;30.80;99.90;;;;;;5021063;28;20069;-83
2021/07/03 09:32:17;;;;;;;9.18;8.27;;;30.70;99.90;;;;;;5017739;28;20054;-82
2021/07/03 09:34:44;;;;;;;8.45;7.65;;;31.10;99.90;;;;;;5017814;28;20046;-82
2021/07/03 09:37:12;;;;;;;8.65;7.53;;;31.50;99.90;;;;;;5018764;28;20098;-82
2021/07/03 09:39:41;;;;;;;9.30;7.60;;;31.60;99.90;;;;;;5017412;28;20113;-82
2021/07/03 09:42:14;;;;;;;8.88;7.80;;;31.90;99.90;;;;;;5018646;28;20494;-82
2021/07/03 09:44:41;;;;;;;9.15;8.25;;;32.10;99.90;;;;;;5015974;28;20070;-82
2021/07/03 09:47:16;;;;;;;9.05;8.00;;;32.00;99.90;;;;;;5015918;28;20137;-79
2021/07/03 09:49:43;;;;;;;11.70;7.85;;;32.00;99.90;;;;;;5015200;28;20054;-81
2021/07/03 09:52:12;;;;;;;10.55;7.80;;;32.00;99.90;;;;;;5012918;28;20474;-82
2021/07/03 09:54:41;;;;;;;8.52;7.63;;;32.10;99.90;;;;;;5015849;28;20064;-82
2021/07/03 09:57:10;;;;;;;12.20;9.10;;;31.80;99.90;;;;;;5016327;28;20136;-81
2021/07/03 09:59:37;;;;;;;11.45;8.80;;;31.60;99.90;;;;;;5015378;28;20489;-82
2021/07/03 10:02:10;;;;;;;9.88;8.50;;;31.20;99.90;;;;;;5011762;28;20494;-80
2021/07/03 10:04:36;;;;;;;9.52;8.48;;;31.00;99.90;;;;;;5014822;28;20049;-82
2021/07/03 10:07:09;;;;;;;9.63;8.07;;;30.80;99.90;;;;;;5014889;28;20042;-81
2021/07/03 10:09:39;;;;;;;8.93;8.02;;;30.70;99.90;;;;;;5014297;28;20088;-81
2021/07/03 10:12:10;;;;;;;14.05;9.00;;;30.40;99.90;;;;;;5018283;28;20053;-82
2021/07/03 10:14:39;;;;;;;10.93;8.55;;;30.00;99.90;;;;;;5019608;28;20134;-81
2021/07/03 10:17:07;;;;;;;11.15;8.52;;;29.70;99.90;;;;;;5019621;28;20132;-81
2021/07/03 10:19:36;;;;;;;9.77;8.82;;;29.60;99.90;;;;;;5019971;28;20089;-81
2021/07/03 10:22:14;;;;;;;10.35;9.25;;;29.50;99.90;;;;;;5019949;28;20403;-83
2021/07/03 10:24:43;;;;;;;9.95;8.95;;;29.40;99.90;;;;;;5019026;28;20050;-81
2021/07/03 10:27:18;;;;;;;10.20;8.90;;;29.20;99.90;;;;;;5019652;28;20212;-82
2021/07/03 10:29:47;;;;;;;9.63;8.63;;;29.10;99.90;;;;;;5020330;28;20054;-82
2021/07/03 10:32:22;;;;;;;11.77;8.82;;;29.00;99.90;;;;;;5020482;28;20124;-81
2021/07/03 10:34:50;;;;;;;9.23;7.90;;;29.00;99.90;;;;;;5018848;28;20057;-79
2021/07/03 10:37:38;;;;;;;9.30;7.80;;;29.00;99.90;;;;;;5083036;23;20068;-78
2021/07/03 10:40:18;;;;;;;11.40;7.60;;;29.00;99.90;;;;;;5034742;28;20127;-78
2021/07/03 10:42:47;;;;;;;9.98;7.65;;;29.00;99.90;;;;;;5034984;28;20057;-78
2021/07/03 10:45:18;;;;;;;8.30;7.32;;;29.10;99.90;;;;;;5034490;28;20049;-79
2021/07/03 10:47:45;;;;;;;7.27;6.43;;;29.10;99.90;;;;;;5019094;28;20065;-78
2021/07/03 10:50:30;;;;;;;6.90;6.20;;;29.00;99.90;;;;;;5016585;28;20054;-78
2021/07/03 10:59:30;;;;;;;9.70;6.35;;;29.20;99.90;;;;;;3224451;26;20561;-77
2021/07/03 11:02:33;;;;;;;8.93;6.20;;;29.20;99.90;;;;;;5018579;28;20041;-78
2021/07/03 11:05:19;;;;;;;7.85;6.57;;;29.30;99.90;;;;;;5018449;28;20104;-78
2021/07/03 11:07:52;;;;;;;8.75;6.68;;;28.90;99.90;;;;;;4998191;28;20105;-78
2021/07/03 11:10:33;;;;;;;12.73;6.80;;;28.70;99.90;;;;;;4999531;28;20046;-78
2021/07/03 11:13:01;;;;;;;7.65;6.28;;;28.80;99.90;;;;;;4997663;28;20414;-78
2021/07/03 11:15:38;;;;;;;7.50;6.55;;;28.60;99.90;;;;;;4997905;28;20137;-77
2021/07/03 11:18:08;;;;;;;6.75;5.82;;;28.60;99.90;;;;;;4995587;28;20172;-79
2021/07/03 11:20:40;;;;;;;7.10;6.35;;;28.70;99.90;;;;;;4995364;28;20144;-78
2021/07/03 11:23:12;;;;;;;8.77;6.38;;;28.80;99.90;;;;;;4995846;28;20423;-80
2021/07/03 11:25:43;;;;;;;7.93;6.57;;;28.90;99.90;;;;;;5010977;28;20148;-79
2021/07/03 11:28:17;;;;;;;8.20;6.40;;;29.00;99.90;;;;;;5015202;28;20096;-78
2021/07/03 11:30:53;;;;;;;6.63;5.93;;;29.10;99.90;;;;;;5017323;28;20058;-78
2021/07/03 11:33:20;;;;;;;7.63;6.30;;;29.20;99.90;;;;;;5015345;28;20046;-79
2021/07/03 11:35:54;;;;;;;8.75;6.05;;;29.20;99.90;;;;;;5014944;28;20084;-78
2021/07/03 11:38:30;;;;;;;7.25;6.40;;;28.90;99.90;;;;;;5020517;28;20045;-79
2021/07/03 11:41:00;;;;;;;7.57;6.25;;;28.90;99.90;;;;;;5023963;28;20052;-80
2021/07/03 11:43:29;;;;;;;9.27;6.15;;;28.90;99.90;;;;;;5020383;28;20522;-80
2021/07/03 11:46:05;;;;;;;8.05;6.50;;;28.90;99.90;;;;;;5016185;28;20053;-79
2021/07/03 11:48:35;;;;;;;8.68;6.20;;;28.90;99.90;;;;;;5016796;28;20451;-78
2021/07/03 11:51:04;;;;;;;6.90;6.20;;;28.90;99.90;;;;;;5015176;28;20049;-79
2021/07/03 11:53:33;;;;;;;8.38;6.28;;;29.00;99.90;;;;;;5014705;28;20203;-79
2021/07/03 11:56:02;;;;;;;6.82;5.90;;;29.10;99.90;;;;;;5014405;28;20125;-78
2021/07/03 11:58:31;;;;;;;7.22;6.50;;;29.00;99.90;;;;;;5015616;28;20497;-83
2021/07/03 12:01:04;;;;;;;7.85;6.65;;;28.90;99.90;;;;;;5015922;28;20053;-83
2021/07/03 12:03:32;;;;;;;7.57;6.82;;;29.00;99.90;;;;;;5019768;28;20049;-82
2021/07/03 12:06:04;;;;;;;6.78;6.18;;;29.00;99.90;;;;;;5015150;28;20069;-82
2021/07/03 12:08:33;;;;;;;7.70;6.78;;;28.90;99.90;;;;;;5006965;28;20105;-82
2021/07/03 12:11:03;;;;;;;8.02;6.68;;;29.00;99.90;;;;;;5007546;28;20049;-82
2021/07/03 12:13:31;;;;;;;6.88;6.18;;;29.20;99.90;;;;;;5009716;28;20157;-81
2021/07/03 12:16:09;;;;;;;7.82;6.38;;;29.30;99.90;;;;;;5008662;28;20310;-82
2021/07/03 12:18:38;;;;;;;8.73;6.45;;;29.40;99.90;;;;;;5020263;28;20042;-81
2021/07/03 12:21:08;;;;;;;7.10;6.40;;;29.40;99.90;;;;;;5021031;28;20053;-82
2021/07/03 12:23:36;;;;;;;8.30;6.78;;;29.50;99.90;;;;;;5021574;28;20072;-83
2021/07/03 12:26:04;;;;;;;9.20;6.70;;;29.40;99.90;;;;;;5024078;28;20060;-82
2021/07/03 12:28:31;;;;;;;8.50;6.50;;;29.30;99.90;;;;;;5015653;28;20077;-82
2021/07/03 12:31:07;;;;;;;7.70;6.90;;;29.30;99.90;;;;;;5008433;28;20042;-81
2021/07/03 12:33:35;;;;;;;7.65;6.18;;;29.30;99.90;;;;;;5010425;28;20050;-82
2021/07/03 12:36:03;;;;;;;9.00;6.68;;;29.20;99.90;;;;;;5015113;28;20084;-82
2021/07/03 12:38:31;;;;;;;7.82;6.85;;;29.10;99.90;;;;;;5004319;28;20046;-82
2021/07/03 12:40:59;;;;;;;8.02;6.78;;;29.10;99.90;;;;;;5013122;28;20046;-81
2021/07/03 12:43:31;;;;;;;10.45;6.80;;;29.10;99.90;;;;;;5013370;28;20050;-81
2021/07/03 12:46:02;;;;;;;8.50;6.70;;;29.20;99.90;;;;;;5013444;28;20050;-81